createdAt,value
2022-09-16T00:01:27.249Z,0.00
2022-09-16T00:01:56.117Z,0.00
2022-09-16T00:02:25.921Z,0.00
2022-09-16T00:02:56.925Z,0.00
2022-09-16T00:03:58.894Z,0.00
2022-09-16T00:04:29.887Z,0.00
2022-09-16T00:05:01.023Z,0.00
2022-09-16T00:06:02.980Z,0.00
2022-09-16T00:06:33.893Z,0.00
2022-09-16T00:08:06.904Z,0.00
2022-09-16T00:08:37.883Z,0.00
2022-09-16T00:09:39.934Z,0.00
2022-09-16T00:11:12.988Z,0.00
2022-09-16T00:12:16.567Z,0.00
2022-09-16T00:12:45.977Z,0.00
2022-09-16T00:13:16.995Z,0.00
2022-09-16T00:14:18.896Z,0.00
2022-09-16T00:14:50.029Z,0.00
2022-09-16T00:15:33.288Z,0.00
2022-09-16T00:17:09.448Z,0.00
2022-09-16T00:18:45.641Z,0.00
2022-09-16T00:18:57.896Z,0.00
2022-09-16T00:19:28.951Z,0.00
2022-09-16T00:20:31.057Z,0.00
2022-09-16T00:21:01.984Z,0.00
2022-09-16T00:21:32.877Z,0.00
2022-09-16T00:22:03.919Z,0.00
2022-09-16T00:22:35.864Z,0.00
2022-09-16T00:23:05.921Z,0.00
2022-09-16T00:24:38.994Z,0.00
2022-09-16T00:25:09.899Z,0.00
2022-09-16T00:25:40.902Z,0.00
2022-09-16T00:26:42.878Z,0.00
2022-09-16T00:27:45.922Z,0.00
2022-09-16T00:28:46.869Z,0.00
2022-09-16T00:29:17.889Z,0.00
2022-09-16T00:29:48.865Z,0.00
2022-09-16T00:31:25.121Z,0.00
2022-09-16T00:31:52.969Z,0.00
2022-09-16T00:32:23.851Z,0.00
2022-09-16T00:33:25.890Z,0.00
2022-09-16T00:33:56.898Z,0.00
2022-09-16T00:35:33.068Z,0.00
2022-09-16T00:36:01.023Z,0.00
2022-09-16T00:36:31.861Z,0.00
2022-09-16T00:37:02.900Z,0.00
2022-09-16T00:38:39.068Z,0.00
2022-09-16T00:39:06.924Z,0.00
2022-09-16T00:39:37.860Z,0.00
2022-09-16T00:40:39.932Z,0.00
2022-09-16T00:42:13.030Z,0.00
2022-09-16T00:43:45.879Z,0.00
2022-09-16T00:45:31.230Z,0.00
2022-09-16T00:45:49.893Z,0.00
2022-09-16T00:47:22.861Z,0.00
2022-09-16T00:48:25.919Z,0.00
2022-09-16T00:49:26.856Z,0.00
2022-09-16T00:49:57.851Z,0.00
2022-09-16T00:50:28.933Z,0.00
2022-09-16T00:52:01.959Z,0.00
2022-09-16T00:52:32.885Z,0.00
2022-09-16T00:54:09.040Z,0.00
2022-09-16T00:54:36.903Z,0.00
2022-09-16T00:55:07.914Z,0.00
2022-09-16T00:55:38.887Z,0.00
2022-09-16T00:56:40.903Z,0.00
2022-09-16T00:58:13.915Z,0.00
2022-09-16T00:58:45.939Z,0.00
2022-09-16T00:59:46.854Z,0.00
2022-09-16T01:00:35.853Z,0.00
2022-09-16T01:01:53.240Z,0.00
2022-09-16T01:02:22.053Z,0.00
2022-09-16T01:02:57.165Z,0.00
2022-09-16T01:03:24.033Z,0.00
2022-09-16T01:05:00.259Z,0.00
2022-09-16T01:05:27.958Z,0.00
2022-09-16T01:07:01.360Z,0.00
2022-09-16T01:07:31.971Z,0.00
2022-09-16T01:09:08.182Z,0.00
2022-09-16T01:09:35.905Z,0.00
2022-09-16T01:11:12.102Z,0.00
2022-09-16T01:12:10.984Z,0.00
2022-09-16T01:13:47.168Z,0.00
2022-09-16T01:14:24.309Z,0.00
2022-09-16T01:15:29.184Z,0.00
2022-09-16T01:15:47.901Z,0.00
2022-09-16T01:16:49.915Z,0.00
2022-09-16T01:18:22.833Z,0.00
2022-09-16T01:19:25.942Z,0.00
2022-09-16T01:19:55.878Z,0.00
2022-09-16T01:20:26.909Z,0.00
2022-09-16T01:21:59.866Z,0.00
2022-09-16T01:23:01.994Z,0.00
2022-09-16T01:24:03.962Z,0.00
2022-09-16T01:25:40.161Z,0.00
2022-09-16T01:26:07.936Z,0.00
2022-09-16T01:26:38.852Z,0.00
2022-09-16T01:27:09.917Z,0.00
2022-09-16T01:27:40.841Z,0.00
2022-09-16T01:29:17.040Z,0.00
2022-09-16T01:30:28.648Z,0.00
2022-09-16T01:30:46.876Z,0.00
2022-09-16T01:31:48.976Z,0.00
2022-09-16T01:33:25.183Z,0.00
2022-09-16T01:33:52.876Z,0.00
2022-09-16T01:34:23.828Z,0.00
2022-09-16T01:35:25.891Z,0.00
2022-09-16T01:35:56.880Z,0.00
2022-09-16T01:36:27.880Z,0.00
2022-09-16T01:38:01.042Z,0.00
2022-09-16T01:38:31.832Z,0.00
2022-09-16T01:39:02.912Z,0.00
2022-09-16T01:39:33.894Z,0.00
2022-09-16T01:41:06.950Z,0.00
2022-09-16T01:41:37.871Z,0.00
2022-09-16T01:42:08.936Z,0.00
2022-09-16T01:43:45.099Z,0.00
2022-09-16T01:44:12.893Z,0.00
2022-09-16T01:44:43.851Z,0.00
2022-09-16T01:45:28.169Z,0.00
2022-09-16T01:45:45.842Z,0.00
2022-09-16T01:46:16.895Z,0.00
2022-09-16T01:46:47.947Z,0.00
2022-09-16T01:48:24.176Z,0.00
2022-09-16T01:48:53.899Z,0.00
2022-09-16T01:49:22.842Z,0.00
2022-09-16T01:50:59.015Z,0.00
2022-09-16T01:52:28.914Z,0.00
2022-09-16T01:54:05.076Z,0.00
2022-09-16T01:54:32.868Z,0.00
2022-09-16T01:55:35.918Z,0.00
2022-09-16T01:56:06.728Z,0.00
2022-09-16T01:56:36.936Z,0.00
2022-09-16T01:57:07.906Z,0.00
2022-09-16T01:58:44.069Z,0.00
2022-09-16T01:59:11.894Z,0.00
2022-09-16T01:59:42.874Z,0.00
2022-09-16T02:00:58.480Z,0.00
2022-09-16T02:01:47.083Z,0.00
2022-09-16T02:02:17.987Z,0.00
2022-09-16T02:02:49.019Z,0.00
2022-09-16T02:04:21.911Z,0.00
2022-09-16T02:04:52.888Z,0.00
2022-09-16T02:06:25.927Z,0.00
2022-09-16T02:06:56.901Z,0.00
2022-09-16T02:08:33.058Z,0.00
2022-09-16T02:09:01.053Z,0.00
2022-09-16T02:09:31.894Z,0.00
2022-09-16T02:10:02.902Z,0.00
2022-09-16T02:11:05.907Z,0.00
2022-09-16T02:12:06.844Z,0.00
2022-09-16T02:13:42.998Z,0.00
2022-09-16T02:14:10.882Z,0.00
2022-09-16T02:14:41.865Z,0.00
2022-09-16T02:16:15.961Z,0.00
2022-09-16T02:16:45.853Z,0.00
2022-09-16T02:18:18.872Z,0.00
2022-09-16T02:19:20.831Z,0.00
2022-09-16T02:20:22.869Z,0.00
2022-09-16T02:20:53.832Z,0.00
2022-09-16T02:21:25.862Z,0.00
2022-09-16T02:21:55.882Z,0.00
2022-09-16T02:22:26.849Z,0.00
2022-09-16T02:22:57.841Z,0.00
2022-09-16T02:24:30.898Z,0.00
2022-09-16T02:25:01.945Z,0.00
2022-09-16T02:26:35.943Z,0.00
2022-09-16T02:28:07.863Z,0.00
2022-09-16T02:28:38.901Z,0.00
2022-09-16T02:30:27.442Z,0.00
2022-09-16T02:31:45.837Z,0.00
2022-09-16T02:32:15.885Z,0.00
2022-09-16T02:33:17.842Z,0.00
2022-09-16T02:33:48.868Z,0.00
2022-09-16T02:34:19.887Z,0.00
2022-09-16T02:34:50.847Z,0.00
2022-09-16T02:36:23.833Z,0.00
2022-09-16T02:37:25.823Z,0.00
2022-09-16T02:38:58.836Z,0.00
2022-09-16T02:39:29.893Z,0.00
2022-09-16T02:40:31.961Z,0.00
2022-09-16T02:41:03.035Z,0.00
2022-09-16T02:42:39.250Z,0.00
2022-09-16T02:43:06.865Z,0.00
2022-09-16T02:43:37.857Z,0.00
2022-09-16T02:44:08.919Z,0.00
2022-09-16T02:44:39.823Z,0.00
2022-09-16T02:45:54.158Z,0.00
2022-09-16T02:46:12.859Z,0.00
2022-09-16T02:47:15.946Z,0.00
2022-09-16T02:48:21.849Z,0.00
2022-09-16T02:48:47.817Z,0.00
2022-09-16T02:49:18.830Z,0.00
2022-09-16T02:49:49.836Z,0.00
2022-09-16T02:51:26.027Z,0.00
2022-09-16T02:51:53.862Z,0.00
2022-09-16T02:52:25.882Z,0.00
2022-09-16T02:52:55.841Z,0.00
2022-09-16T02:53:26.828Z,0.00
2022-09-16T02:53:57.821Z,0.00
2022-09-16T02:54:28.826Z,0.00
2022-09-16T02:56:01.979Z,0.00
2022-09-16T02:57:38.217Z,0.00
2022-09-16T02:58:36.875Z,0.00
2022-09-16T03:00:25.421Z,0.00
2022-09-16T03:00:40.833Z,0.00
2022-09-16T03:01:11.825Z,0.00
2022-09-16T03:02:45.911Z,0.00
2022-09-16T03:03:15.814Z,0.00
2022-09-16T03:03:46.923Z,0.00
2022-09-16T03:04:17.812Z,0.00
2022-09-16T03:05:50.837Z,0.00
2022-09-16T03:06:21.861Z,0.00
2022-09-16T03:06:52.872Z,0.00
2022-09-16T03:08:29.046Z,0.00
2022-09-16T03:08:56.874Z,0.00
2022-09-16T03:09:27.895Z,0.00
2022-09-16T03:11:00.976Z,0.00
2022-09-16T03:12:02.869Z,0.00
2022-09-16T03:12:33.796Z,0.00
2022-09-16T03:13:05.821Z,0.00
2022-09-16T03:14:06.896Z,0.00
2022-09-16T03:15:52.228Z,0.00
2022-09-16T03:16:10.818Z,0.00
2022-09-16T03:17:43.823Z,0.00
2022-09-16T03:18:15.890Z,0.00
2022-09-16T03:18:45.817Z,0.00
2022-09-16T03:19:16.824Z,0.00
2022-09-16T03:20:18.857Z,0.00
2022-09-16T03:21:51.802Z,0.00
2022-09-16T03:22:22.860Z,0.00
2022-09-16T03:22:53.815Z,0.00
2022-09-16T03:23:25.821Z,0.00
2022-09-16T03:24:57.834Z,0.00
2022-09-16T03:25:28.831Z,0.00
2022-09-16T03:25:59.817Z,0.00
2022-09-16T03:26:30.811Z,0.00
2022-09-16T03:27:01.937Z,0.00
2022-09-16T03:28:35.795Z,0.00
2022-09-16T03:29:05.872Z,0.00
2022-09-16T03:29:36.844Z,0.00
2022-09-16T03:30:20.411Z,0.00
2022-09-16T03:30:38.819Z,0.00
2022-09-16T03:31:40.828Z,0.00
2022-09-16T03:32:11.846Z,0.00
2022-09-16T03:33:48.015Z,0.00
2022-09-16T03:35:17.878Z,0.00
2022-09-16T03:35:48.835Z,0.00
2022-09-16T03:36:19.862Z,0.00
2022-09-16T03:36:50.809Z,0.00
2022-09-16T03:37:21.854Z,0.00
2022-09-16T03:38:58.018Z,0.00
2022-09-16T03:39:56.883Z,0.00
2022-09-16T03:41:33.100Z,0.00
2022-09-16T03:43:09.254Z,0.00
2022-09-16T03:43:33.843Z,0.00
2022-09-16T03:44:05.808Z,0.00
2022-09-16T03:44:35.808Z,0.00
2022-09-16T03:46:12.061Z,0.00
2022-09-16T03:46:39.916Z,0.00
2022-09-16T03:48:12.812Z,0.00
2022-09-16T03:48:43.794Z,0.00
2022-09-16T03:49:15.957Z,0.00
2022-09-16T03:49:45.979Z,0.00
2022-09-16T03:50:16.891Z,0.00
2022-09-16T03:50:47.805Z,0.00
2022-09-16T03:52:20.861Z,0.00
2022-09-16T03:52:51.788Z,0.00
2022-09-16T03:53:22.816Z,0.00
2022-09-16T03:53:53.827Z,0.00
2022-09-16T03:55:26.807Z,0.00
2022-09-16T03:55:57.892Z,0.00
2022-09-16T03:56:59.883Z,0.00
2022-09-16T03:58:32.830Z,0.00
2022-09-16T03:59:03.824Z,0.00
2022-09-16T03:59:35.810Z,0.00
2022-09-16T04:00:49.167Z,0.00
2022-09-16T04:01:38.893Z,0.00
2022-09-16T04:02:09.822Z,0.00
2022-09-16T04:03:11.836Z,0.00
2022-09-16T04:04:48.022Z,0.00
2022-09-16T04:05:15.854Z,0.00
2022-09-16T04:06:17.862Z,0.00
2022-09-16T04:06:48.803Z,0.00
2022-09-16T04:08:24.959Z,0.00
2022-09-16T04:09:23.836Z,0.00
2022-09-16T04:10:25.899Z,0.00
2022-09-16T04:10:56.806Z,0.00
2022-09-16T04:11:58.830Z,0.00
2022-09-16T04:13:31.790Z,0.00
2022-09-16T04:15:20.327Z,0.00
2022-09-16T04:15:35.928Z,0.00
2022-09-16T04:16:06.956Z,0.00
2022-09-16T04:16:37.779Z,0.00
2022-09-16T04:17:08.830Z,0.00
2022-09-16T04:18:41.904Z,0.00
2022-09-16T04:19:12.793Z,0.00
2022-09-16T04:19:43.807Z,0.00
2022-09-16T04:21:20.016Z,0.00
2022-09-16T04:22:49.838Z,0.00
2022-09-16T04:23:20.810Z,0.00
2022-09-16T04:23:51.840Z,0.00
2022-09-16T04:24:53.804Z,0.00
2022-09-16T04:25:55.878Z,0.00
2022-09-16T04:26:26.843Z,0.00
2022-09-16T04:26:57.801Z,0.00
2022-09-16T04:28:33.970Z,0.00
2022-09-16T04:30:16.196Z,0.00
2022-09-16T04:31:36.853Z,0.00
2022-09-16T04:32:07.836Z,0.00
2022-09-16T04:33:09.820Z,0.00
2022-09-16T04:33:40.845Z,0.00
2022-09-16T04:34:42.790Z,0.00
2022-09-16T04:35:45.820Z,0.00
2022-09-16T04:36:15.878Z,0.00
2022-09-16T04:36:46.850Z,0.00
2022-09-16T04:37:48.855Z,0.00
2022-09-16T04:38:50.812Z,0.00
2022-09-16T04:39:52.878Z,0.00
2022-09-16T04:40:23.853Z,0.00
2022-09-16T04:41:56.824Z,0.00
2022-09-16T04:42:27.849Z,0.00
2022-09-16T04:44:01.021Z,0.00
2022-09-16T04:44:31.795Z,0.00
2022-09-16T04:46:08.012Z,0.00
2022-09-16T04:46:35.900Z,0.00
2022-09-16T04:47:06.845Z,0.00
2022-09-16T04:48:43.004Z,0.00
2022-09-16T04:49:10.829Z,0.00
2022-09-16T04:49:41.834Z,0.00
2022-09-16T04:51:15.857Z,0.36
2022-09-16T04:51:45.807Z,0.00
2022-09-16T04:53:18.813Z,0.00
2022-09-16T04:54:20.865Z,0.85
2022-09-16T04:54:51.808Z,0.85
2022-09-16T04:56:27.986Z,0.85
2022-09-16T04:56:55.838Z,0.36
2022-09-16T04:57:26.865Z,1.22
2022-09-16T04:57:58.018Z,0.85
2022-09-16T04:59:30.909Z,2.08
2022-09-16T05:01:07.126Z,2.08
2022-09-16T05:01:35.988Z,1.22
2022-09-16T05:02:05.891Z,2.08
2022-09-16T05:02:36.865Z,2.57
2022-09-16T05:04:13.020Z,2.57
2022-09-16T05:04:40.938Z,3.43
2022-09-16T05:05:11.879Z,3.79
2022-09-16T05:06:48.036Z,3.79
2022-09-16T05:07:15.946Z,3.79
2022-09-16T05:07:46.920Z,3.79
2022-09-16T05:08:17.894Z,3.79
2022-09-16T05:08:48.878Z,4.28
2022-09-16T05:09:19.904Z,4.28
2022-09-16T05:09:50.880Z,4.28
2022-09-16T05:10:21.926Z,4.77
2022-09-16T05:10:52.862Z,4.77
2022-09-16T05:11:55.920Z,4.77
2022-09-16T05:12:25.908Z,4.77
2022-09-16T05:12:56.874Z,3.79
2022-09-16T05:14:33.047Z,3.79
2022-09-16T05:15:13.431Z,3.79
2022-09-16T05:15:31.890Z,4.28
2022-09-16T05:17:06.055Z,5.63
2022-09-16T05:17:49.821Z,5.99
2022-09-16T05:18:37.870Z,5.99
2022-09-16T05:20:10.935Z,7.70
2022-09-16T05:21:43.870Z,7.70
2022-09-16T05:22:45.871Z,7.70
2022-09-16T05:24:18.863Z,8.56
2022-09-16T05:25:20.882Z,8.56
2022-09-16T05:25:51.896Z,8.56
2022-09-16T05:26:22.812Z,9.05
2022-09-16T05:27:25.823Z,9.54
2022-09-16T05:27:55.908Z,10.39
2022-09-16T05:29:32.072Z,10.39
2022-09-16T05:30:43.370Z,14.31
2022-09-16T05:31:02.006Z,15.17
2022-09-16T05:31:32.872Z,16.39
2022-09-16T05:33:09.145Z,16.39
2022-09-16T05:33:36.897Z,19.94
2022-09-16T05:34:07.871Z,20.31
2022-09-16T05:35:44.027Z,20.31
2022-09-16T05:36:11.898Z,22.87
2022-09-16T05:36:42.851Z,22.87
2022-09-16T05:37:13.900Z,23.85
2022-09-16T05:38:15.864Z,24.71
2022-09-16T05:39:18.229Z,25.56
2022-09-16T05:40:50.901Z,25.56
2022-09-16T05:41:21.902Z,25.07
2022-09-16T05:42:23.834Z,23.85
2022-09-16T05:42:55.903Z,24.71
2022-09-16T05:43:26.046Z,24.71
2022-09-16T05:43:56.891Z,25.07
2022-09-16T05:44:27.857Z,24.71
2022-09-16T05:44:58.837Z,25.07
2022-09-16T05:46:35.000Z,25.07
2022-09-16T05:47:33.870Z,24.22
2022-09-16T05:48:35.895Z,23.85
2022-09-16T05:49:06.915Z,23.36
2022-09-16T05:49:37.851Z,23.85
2022-09-16T05:50:08.886Z,22.51
2022-09-16T05:51:10.918Z,22.87
2022-09-16T05:51:41.844Z,23.85
2022-09-16T05:52:12.884Z,25.07
2022-09-16T05:52:43.855Z,24.71
2022-09-16T05:53:45.868Z,23.85
2022-09-16T05:54:16.848Z,25.07
2022-09-16T05:55:49.851Z,27.28
2022-09-16T05:56:20.884Z,27.65
2022-09-16T05:57:53.839Z,32.05
2022-09-16T05:58:25.891Z,32.05
2022-09-16T05:59:26.856Z,35.48
2022-09-16T06:00:41.152Z,34.62
2022-09-16T06:00:59.835Z,35.48
2022-09-16T06:01:30.974Z,35.97
2022-09-16T06:03:07.184Z,35.97
2022-09-16T06:04:05.896Z,39.02
2022-09-16T06:04:36.870Z,40.73
2022-09-16T06:05:07.837Z,40.73
2022-09-16T06:05:42.534Z,37.68
2022-09-16T06:07:21.223Z,37.68
2022-09-16T06:07:42.896Z,29.48
2022-09-16T06:08:13.928Z,29.85
2022-09-16T06:09:50.101Z,29.85
2022-09-16T06:10:17.916Z,37.68
2022-09-16T06:11:50.872Z,48.56
2022-09-16T06:12:21.808Z,52.85
2022-09-16T06:12:52.881Z,51.99
2022-09-16T06:14:25.857Z,51.14
2022-09-16T06:15:40.199Z,55.41
2022-09-16T06:15:58.926Z,54.19
2022-09-16T06:17:35.141Z,54.19
2022-09-16T06:19:05.919Z,67.16
2022-09-16T06:20:42.123Z,67.16
2022-09-16T06:22:10.896Z,64.10
2022-09-16T06:22:41.809Z,55.90
2022-09-16T06:24:15.882Z,43.31
2022-09-16T06:24:45.848Z,41.59
2022-09-16T06:25:47.881Z,51.14
2022-09-16T06:26:18.849Z,46.73
2022-09-16T06:27:20.869Z,40.24
2022-09-16T06:28:22.890Z,38.53
2022-09-16T06:28:54.057Z,39.88
2022-09-16T06:29:55.842Z,40.24
2022-09-16T06:30:39.292Z,41.10
2022-09-16T06:31:28.869Z,41.10
2022-09-16T06:32:30.807Z,39.39
2022-09-16T06:33:01.927Z,39.02
2022-09-16T06:34:35.892Z,36.82
2022-09-16T06:35:05.894Z,40.73
2022-09-16T06:35:36.908Z,41.59
2022-09-16T06:36:42.824Z,37.68
2022-09-16T06:37:09.906Z,38.53
2022-09-16T06:37:40.898Z,43.31
2022-09-16T06:39:17.064Z,43.31
2022-09-16T06:40:46.948Z,70.22
2022-09-16T06:42:19.835Z,77.56
2022-09-16T06:43:21.878Z,110.10
2022-09-16T06:43:52.881Z,97.99
2022-09-16T06:44:55.856Z,102.27
2022-09-16T06:45:38.272Z,118.42
2022-09-16T06:46:27.954Z,127.96
2022-09-16T06:46:58.924Z,151.33
2022-09-16T06:47:30.002Z,142.64
2022-09-16T06:48:01.108Z,130.04
2022-09-16T06:49:33.923Z,121.85
2022-09-16T06:50:35.944Z,123.19
2022-09-16T06:51:06.902Z,114.02
2022-09-16T06:51:38.032Z,116.22
2022-09-16T06:52:08.928Z,123.56
2022-09-16T06:53:10.970Z,130.53
2022-09-16T06:53:41.937Z,133.59
2022-09-16T06:54:43.815Z,117.44
2022-09-16T06:55:15.857Z,111.82
2022-09-16T06:56:16.892Z,120.50
2022-09-16T06:56:47.810Z,106.19
2022-09-16T06:57:18.835Z,106.68
2022-09-16T06:58:51.870Z,103.61
2022-09-16T06:59:53.805Z,101.05
2022-09-16T07:00:38.207Z,95.79
2022-09-16T07:00:55.882Z,89.31
2022-09-16T07:01:26.939Z,87.96
2022-09-16T07:02:59.867Z,82.82
2022-09-16T07:04:01.985Z,78.41
2022-09-16T07:04:32.855Z,76.34
2022-09-16T07:05:03.851Z,74.99
2022-09-16T07:07:08.653Z,77.56
2022-09-16T07:08:09.939Z,85.02
2022-09-16T07:08:40.894Z,85.88
2022-09-16T07:09:11.844Z,88.45
2022-09-16T07:10:13.860Z,97.99
2022-09-16T07:11:15.880Z,101.41
2022-09-16T07:11:46.844Z,100.56
2022-09-16T07:12:19.619Z,100.19
2022-09-16T07:13:56.034Z,100.19
2022-09-16T07:14:22.085Z,95.79
2022-09-16T07:14:52.828Z,93.22
2022-09-16T07:16:13.975Z,89.79
2022-09-16T07:16:25.925Z,89.31
2022-09-16T07:16:56.847Z,86.73
2022-09-16T07:18:29.876Z,74.99
2022-09-16T07:19:01.389Z,73.65
2022-09-16T07:19:31.901Z,72.79
2022-09-16T07:20:33.874Z,71.07
2022-09-16T07:21:35.888Z,66.80
2022-09-16T07:22:06.856Z,65.45
2022-09-16T07:22:37.820Z,64.10
2022-09-16T07:24:13.981Z,64.10
2022-09-16T07:25:43.844Z,77.56
2022-09-16T07:27:20.002Z,77.56
2022-09-16T07:27:47.847Z,74.14
2022-09-16T07:28:18.857Z,73.65
2022-09-16T07:29:20.823Z,70.71
2022-09-16T07:29:51.841Z,69.73
2022-09-16T07:30:35.230Z,68.87
2022-09-16T07:30:53.859Z,67.16
2022-09-16T07:31:25.865Z,63.73
2022-09-16T07:31:55.825Z,60.68
2022-09-16T07:32:26.793Z,59.33
2022-09-16T07:32:57.832Z,58.48
2022-09-16T07:33:28.824Z,57.25
2022-09-16T07:34:03.750Z,57.25
2022-09-16T07:34:30.840Z,57.62
2022-09-16T07:35:02.030Z,56.27
2022-09-16T07:35:32.822Z,55.05
2022-09-16T07:36:03.997Z,53.34
2022-09-16T07:36:35.843Z,51.14
2022-09-16T07:37:05.999Z,49.79
2022-09-16T07:37:41.914Z,48.93
2022-09-16T07:38:07.870Z,48.07
2022-09-16T07:38:38.819Z,48.56
2022-09-16T07:39:09.830Z,48.56
2022-09-16T07:39:40.831Z,47.71
2022-09-16T07:40:11.899Z,48.93
2022-09-16T07:40:42.816Z,47.22
2022-09-16T07:41:13.936Z,48.07
2022-09-16T07:41:45.807Z,47.22
2022-09-16T07:42:15.872Z,48.56
2022-09-16T07:42:46.840Z,48.07
2022-09-16T07:43:17.792Z,48.56
2022-09-16T07:43:48.824Z,49.79
2022-09-16T07:44:19.813Z,50.28
2022-09-16T07:44:50.836Z,50.65
2022-09-16T07:45:34.201Z,50.65
2022-09-16T07:45:52.973Z,51.14
2022-09-16T07:46:23.825Z,51.50
2022-09-16T07:46:55.822Z,51.50
2022-09-16T07:47:25.809Z,51.14
2022-09-16T07:47:56.878Z,51.99
2022-09-16T07:48:32.440Z,52.85
2022-09-16T07:48:58.951Z,53.70
2022-09-16T07:49:29.818Z,53.70
2022-09-16T07:50:01.019Z,54.19
2022-09-16T07:50:31.850Z,55.05
2022-09-16T07:51:02.892Z,54.19
2022-09-16T07:51:33.909Z,53.34
2022-09-16T07:52:05.846Z,52.85
2022-09-16T07:52:35.922Z,52.85
2022-09-16T07:53:06.856Z,53.34
2022-09-16T07:53:37.813Z,53.34
2022-09-16T07:54:08.789Z,53.34
2022-09-16T07:54:39.818Z,53.34
2022-09-16T07:55:10.819Z,52.48
2022-09-16T07:55:41.839Z,53.70
2022-09-16T07:56:12.853Z,55.41
2022-09-16T07:56:43.902Z,58.48
2022-09-16T07:57:15.833Z,61.53
2022-09-16T07:57:45.856Z,65.45
2022-09-16T07:58:16.877Z,69.73
2022-09-16T07:58:47.793Z,72.42
2022-09-16T07:59:19.340Z,74.99
2022-09-16T07:59:49.893Z,75.85
2022-09-16T08:00:33.342Z,76.34
2022-09-16T08:00:51.816Z,77.19
2022-09-16T08:01:22.872Z,77.56
2022-09-16T08:01:53.932Z,79.27
2022-09-16T08:02:25.947Z,78.41
2022-09-16T08:02:55.882Z,78.90
2022-09-16T08:03:26.802Z,78.41
2022-09-16T08:03:57.820Z,79.27
2022-09-16T08:04:28.820Z,79.76
2022-09-16T08:04:59.818Z,81.10
2022-09-16T08:05:30.833Z,80.25
2022-09-16T08:06:01.936Z,78.90
2022-09-16T08:06:32.810Z,76.34
2022-09-16T08:07:03.855Z,73.65
2022-09-16T08:07:35.807Z,71.93
2022-09-16T08:08:05.845Z,69.73
2022-09-16T08:08:36.808Z,68.87
2022-09-16T08:09:15.541Z,65.94
2022-09-16T08:09:41.078Z,63.73
2022-09-16T08:10:10.082Z,61.53
2022-09-16T08:10:40.801Z,58.11
2022-09-16T08:11:11.811Z,55.90
2022-09-16T08:11:42.856Z,54.56
2022-09-16T08:12:13.868Z,51.50
2022-09-16T08:12:45.896Z,50.28
2022-09-16T08:13:15.826Z,47.71
2022-09-16T08:13:46.948Z,47.22
2022-09-16T08:14:17.810Z,45.87
2022-09-16T08:14:48.799Z,45.51
2022-09-16T08:15:32.163Z,44.65
2022-09-16T08:15:50.877Z,43.80
2022-09-16T08:16:21.842Z,43.80
2022-09-16T08:16:52.904Z,42.94
2022-09-16T08:17:23.841Z,42.45
2022-09-16T08:17:55.836Z,43.31
2022-09-16T08:18:25.844Z,41.96
2022-09-16T08:18:57.052Z,41.96
2022-09-16T08:19:27.871Z,42.45
2022-09-16T08:19:58.818Z,41.96
2022-09-16T08:20:29.819Z,43.31
2022-09-16T08:21:00.842Z,43.80
2022-09-16T08:21:31.874Z,44.65
2022-09-16T08:22:02.855Z,45.02
2022-09-16T08:22:34.025Z,45.87
2022-09-16T08:23:05.851Z,46.36
2022-09-16T08:23:35.817Z,46.73
2022-09-16T08:24:06.812Z,46.73
2022-09-16T08:24:37.800Z,46.73
2022-09-16T08:25:08.882Z,47.71
2022-09-16T08:25:39.792Z,48.93
2022-09-16T08:26:10.824Z,48.93
2022-09-16T08:26:41.832Z,49.79
2022-09-16T08:27:12.857Z,50.28
2022-09-16T08:27:43.829Z,51.14
2022-09-16T08:28:15.810Z,51.50
2022-09-16T08:29:07.300Z,52.85
2022-09-16T08:29:17.294Z,54.19
2022-09-16T08:29:47.827Z,56.76
2022-09-16T08:30:31.306Z,58.11
2022-09-16T08:30:52.704Z,58.48
2022-09-16T08:31:20.927Z,58.97
2022-09-16T08:31:51.852Z,59.33
2022-09-16T08:32:22.833Z,58.48
2022-09-16T08:32:53.813Z,57.62
2022-09-16T08:33:25.781Z,56.27
2022-09-16T08:33:55.796Z,54.56
2022-09-16T08:34:26.812Z,51.14
2022-09-16T08:34:57.795Z,47.71
2022-09-16T08:35:28.811Z,46.36
2022-09-16T08:35:59.829Z,44.16
2022-09-16T08:36:30.838Z,44.65
2022-09-16T08:37:01.927Z,44.16
2022-09-16T08:37:32.800Z,44.65
2022-09-16T08:38:03.826Z,44.65
2022-09-16T08:38:35.812Z,44.16
2022-09-16T08:39:05.838Z,44.16
2022-09-16T08:39:36.791Z,44.65
2022-09-16T08:40:08.067Z,44.65
2022-09-16T08:40:38.816Z,46.36
2022-09-16T08:41:09.815Z,47.22
2022-09-16T08:41:40.748Z,47.71
2022-09-16T08:42:11.799Z,48.07
2022-09-16T08:42:42.783Z,47.22
2022-09-16T08:43:13.867Z,47.71
2022-09-16T08:43:45.820Z,47.71
2022-09-16T08:44:15.796Z,48.07
2022-09-16T08:44:46.787Z,48.56
2022-09-16T08:45:30.390Z,48.56
2022-09-16T08:45:48.878Z,47.71
2022-09-16T08:46:19.837Z,44.65
2022-09-16T08:46:50.837Z,41.10
2022-09-16T08:47:21.802Z,40.24
2022-09-16T08:47:52.817Z,38.17
2022-09-16T08:48:28.495Z,35.97
2022-09-16T08:48:55.927Z,35.97
2022-09-16T08:49:25.922Z,35.48
2022-09-16T08:49:56.809Z,36.33
2022-09-16T08:50:27.830Z,36.33
2022-09-16T08:50:58.849Z,36.33
2022-09-16T08:51:29.864Z,36.82
2022-09-16T08:52:01.025Z,36.82
2022-09-16T08:52:31.844Z,35.97
2022-09-16T08:53:02.882Z,35.48
2022-09-16T08:53:33.827Z,34.62
2022-09-16T08:54:05.805Z,34.62
2022-09-16T08:54:35.847Z,33.76
2022-09-16T08:55:06.829Z,33.39
2022-09-16T08:55:37.803Z,32.90
2022-09-16T08:56:08.882Z,32.42
2022-09-16T08:56:44.289Z,32.05
2022-09-16T08:57:10.787Z,32.05
2022-09-16T08:57:41.829Z,32.90
2022-09-16T08:58:12.922Z,34.25
2022-09-16T08:58:43.801Z,36.33
2022-09-16T08:59:15.805Z,36.82
2022-09-16T08:59:45.788Z,39.02
2022-09-16T09:00:29.093Z,40.24
2022-09-16T09:00:47.857Z,40.73
2022-09-16T09:01:18.898Z,41.59
2022-09-16T09:01:50.509Z,44.65
2022-09-16T09:02:21.325Z,46.73
2022-09-16T09:02:51.986Z,51.14
2022-09-16T09:03:22.822Z,58.11
2022-09-16T09:03:53.870Z,66.31
2022-09-16T09:04:25.822Z,74.14
2022-09-16T09:04:55.845Z,82.82
2022-09-16T09:05:26.804Z,90.16
2022-09-16T09:05:57.815Z,97.13
2022-09-16T09:06:28.766Z,103.13
2022-09-16T09:06:59.797Z,108.88
2022-09-16T09:07:30.814Z,114.87
2022-09-16T09:08:01.992Z,118.78
2022-09-16T09:08:32.821Z,124.05
2022-09-16T09:09:03.929Z,127.10
2022-09-16T09:09:35.983Z,129.19
2022-09-16T09:10:08.585Z,133.59
2022-09-16T09:10:36.818Z,140.07
2022-09-16T09:11:07.947Z,147.05
2022-09-16T09:11:38.960Z,156.59
2022-09-16T09:12:10.443Z,161.73
2022-09-16T09:12:42.118Z,172.12
2022-09-16T09:13:12.744Z,174.33
2022-09-16T09:13:42.923Z,168.70
2022-09-16T09:14:13.965Z,158.67
2022-09-16T09:14:45.948Z,144.36
2022-09-16T09:15:28.526Z,128.33
2022-09-16T09:15:46.874Z,110.96
2022-09-16T09:16:17.902Z,94.93
2022-09-16T09:16:48.966Z,85.39
2022-09-16T09:17:19.865Z,78.90
2022-09-16T09:17:50.912Z,77.56
2022-09-16T09:18:21.868Z,74.50
2022-09-16T09:18:52.876Z,73.28
2022-09-16T09:19:23.922Z,71.93
2022-09-16T09:19:55.830Z,71.07
2022-09-16T09:20:25.916Z,71.56
2022-09-16T09:20:56.825Z,72.79
2022-09-16T09:21:27.875Z,73.28
2022-09-16T09:21:58.832Z,73.65
2022-09-16T09:22:29.890Z,73.65
2022-09-16T09:23:01.080Z,72.42
2022-09-16T09:23:31.907Z,70.71
2022-09-16T09:24:02.821Z,68.02
2022-09-16T09:24:33.809Z,65.94
2022-09-16T09:25:05.856Z,63.24
2022-09-16T09:25:35.782Z,61.53
2022-09-16T09:26:06.815Z,62.02
2022-09-16T09:26:37.783Z,61.53
2022-09-16T09:27:08.800Z,63.24
2022-09-16T09:27:39.835Z,64.96
2022-09-16T09:28:10.775Z,67.16
2022-09-16T09:28:41.831Z,68.87
2022-09-16T09:29:12.802Z,68.87
2022-09-16T09:29:43.890Z,69.36
2022-09-16T09:30:28.237Z,70.71
2022-09-16T09:30:45.965Z,71.93
2022-09-16T09:31:16.896Z,74.50
2022-09-16T09:31:47.813Z,77.56
2022-09-16T09:32:18.802Z,79.76
2022-09-16T09:32:50.062Z,82.82
2022-09-16T09:33:44.382Z,84.53
2022-09-16T09:34:22.793Z,86.73
2022-09-16T09:34:53.800Z,87.96
2022-09-16T09:35:25.836Z,89.79
2022-09-16T09:35:55.810Z,91.51
2022-09-16T09:36:26.780Z,92.73
2022-09-16T09:36:57.819Z,94.93
2022-09-16T09:37:28.796Z,98.85
2022-09-16T09:37:59.798Z,103.61
2022-09-16T09:38:30.843Z,110.96
2022-09-16T09:39:02.006Z,120.50
2022-09-16T09:39:32.854Z,130.04
2022-09-16T09:40:04.007Z,140.93
2022-09-16T09:40:36.031Z,149.98
2022-09-16T09:41:05.905Z,156.10
2022-09-16T09:41:36.846Z,161.73
2022-09-16T09:42:07.819Z,164.78
2022-09-16T09:42:38.825Z,166.50
2022-09-16T09:43:09.892Z,171.27
2022-09-16T09:44:11.840Z,185.22
2022-09-16T09:44:42.964Z,196.47
2022-09-16T09:45:26.300Z,207.36
2022-09-16T09:45:46.031Z,212.98
2022-09-16T09:46:15.920Z,214.70
2022-09-16T09:46:46.860Z,209.93
2022-09-16T09:47:17.911Z,194.76
2022-09-16T09:47:48.832Z,179.10
2022-09-16T09:48:19.908Z,170.41
2022-09-16T09:48:50.931Z,162.58
2022-09-16T09:49:21.869Z,157.44
2022-09-16T09:49:52.963Z,150.47